sensor_id;sensor_type;location;lat;lon;timestamp;P1;durP1;ratioP1;P2;durP2;ratioP2
41687;SDS011;27371;42.686;23.362;2023-04-25T00:02:02;3.10;;;1.77;;
41687;SDS011;27371;42.686;23.362;2023-04-25T00:04:28;4.15;;;1.88;;
41687;SDS011;27371;42.686;23.362;2023-04-25T00:06:54;3.00;;;2.20;;
41687;SDS011;27371;42.686;23.362;2023-04-25T00:09:20;3.10;;;2.30;;
41687;SDS011;27371;42.686;23.362;2023-04-25T00:11:46;2.25;;;1.77;;
41687;SDS011;27371;42.686;23.362;2023-04-25T00:14:12;2.63;;;2.08;;
41687;SDS011;27371;42.686;23.362;2023-04-25T00:16:38;3.85;;;3.30;;
41687;SDS011;27371;42.686;23.362;2023-04-25T00:19:04;5.22;;;3.60;;
41687;SDS011;27371;42.686;23.362;2023-04-25T00:21:29;7.00;;;4.35;;
41687;SDS011;27371;42.686;23.362;2023-04-25T00:23:56;5.20;;;4.10;;
41687;SDS011;27371;42.686;23.362;2023-04-25T00:26:22;5.15;;;3.53;;
41687;SDS011;27371;42.686;23.362;2023-04-25T00:28:47;6.03;;;3.63;;
41687;SDS011;27371;42.686;23.362;2023-04-25T00:31:13;3.60;;;3.30;;
41687;SDS011;27371;42.686;23.362;2023-04-25T00:33:39;4.53;;;3.30;;
41687;SDS011;27371;42.686;23.362;2023-04-25T00:36:04;3.85;;;2.80;;
41687;SDS011;27371;42.686;23.362;2023-04-25T00:38:31;5.45;;;3.28;;
41687;SDS011;27371;42.686;23.362;2023-04-25T00:40:56;4.65;;;3.10;;
41687;SDS011;27371;42.686;23.362;2023-04-25T00:43:23;4.20;;;3.42;;
41687;SDS011;27371;42.686;23.362;2023-04-25T00:45:52;4.50;;;3.65;;
41687;SDS011;27371;42.686;23.362;2023-04-25T00:48:19;3.67;;;3.15;;
41687;SDS011;27371;42.686;23.362;2023-04-25T00:50:49;4.95;;;2.92;;
41687;SDS011;27371;42.686;23.362;2023-04-25T00:53:18;3.50;;;2.78;;
41687;SDS011;27371;42.686;23.362;2023-04-25T00:55:43;4.32;;;2.67;;
41687;SDS011;27371;42.686;23.362;2023-04-25T00:58:09;8.18;;;2.75;;
41687;SDS011;27371;42.686;23.362;2023-04-25T01:00:35;3.13;;;2.45;;
41687;SDS011;27371;42.686;23.362;2023-04-25T01:03:01;3.22;;;2.38;;
41687;SDS011;27371;42.686;23.362;2023-04-25T01:05:27;3.10;;;2.17;;
41687;SDS011;27371;42.686;23.362;2023-04-25T01:07:53;3.92;;;2.70;;
41687;SDS011;27371;42.686;23.362;2023-04-25T01:10:18;3.55;;;2.70;;
41687;SDS011;27371;42.686;23.362;2023-04-25T01:12:44;5.18;;;2.88;;
41687;SDS011;27371;42.686;23.362;2023-04-25T01:15:09;4.45;;;3.08;;
41687;SDS011;27371;42.686;23.362;2023-04-25T01:17:35;4.13;;;3.25;;
41687;SDS011;27371;42.686;23.362;2023-04-25T01:20:04;4.00;;;3.00;;
41687;SDS011;27371;42.686;23.362;2023-04-25T01:22:30;4.35;;;2.95;;
41687;SDS011;27371;42.686;23.362;2023-04-25T01:24:57;3.88;;;3.47;;
41687;SDS011;27371;42.686;23.362;2023-04-25T01:27:23;5.47;;;3.50;;
41687;SDS011;27371;42.686;23.362;2023-04-25T01:29:50;7.93;;;3.88;;
41687;SDS011;27371;42.686;23.362;2023-04-25T01:32:16;4.25;;;3.83;;
41687;SDS011;27371;42.686;23.362;2023-04-25T01:34:42;4.70;;;4.10;;
41687;SDS011;27371;42.686;23.362;2023-04-25T01:37:08;4.63;;;3.40;;
41687;SDS011;27371;42.686;23.362;2023-04-25T01:39:33;4.53;;;3.80;;
41687;SDS011;27371;42.686;23.362;2023-04-25T01:41:59;5.20;;;3.35;;
41687;SDS011;27371;42.686;23.362;2023-04-25T01:44:25;5.25;;;3.42;;
41687;SDS011;27371;42.686;23.362;2023-04-25T01:46:50;4.38;;;3.45;;
41687;SDS011;27371;42.686;23.362;2023-04-25T01:49:16;4.00;;;3.40;;
41687;SDS011;27371;42.686;23.362;2023-04-25T01:51:41;6.32;;;3.33;;
41687;SDS011;27371;42.686;23.362;2023-04-25T01:54:08;3.97;;;3.25;;
41687;SDS011;27371;42.686;23.362;2023-04-25T01:56:36;5.28;;;3.15;;
41687;SDS011;27371;42.686;23.362;2023-04-25T01:59:05;3.88;;;3.13;;
41687;SDS011;27371;42.686;23.362;2023-04-25T02:01:30;3.88;;;2.83;;
41687;SDS011;27371;42.686;23.362;2023-04-25T02:03:56;3.00;;;2.70;;
41687;SDS011;27371;42.686;23.362;2023-04-25T02:06:21;6.55;;;3.17;;
41687;SDS011;27371;42.686;23.362;2023-04-25T02:08:47;3.40;;;2.60;;
41687;SDS011;27371;42.686;23.362;2023-04-25T02:11:12;3.00;;;2.70;;
41687;SDS011;27371;42.686;23.362;2023-04-25T02:13:37;3.75;;;2.33;;
41687;SDS011;27371;42.686;23.362;2023-04-25T02:16:03;4.20;;;2.58;;
41687;SDS011;27371;42.686;23.362;2023-04-25T02:18:29;2.80;;;2.38;;
41687;SDS011;27371;42.686;23.362;2023-04-25T02:20:54;3.75;;;2.70;;
41687;SDS011;27371;42.686;23.362;2023-04-25T02:23:20;3.10;;;2.60;;
41687;SDS011;27371;42.686;23.362;2023-04-25T02:25:45;5.25;;;2.55;;
41687;SDS011;27371;42.686;23.362;2023-04-25T02:28:11;3.25;;;2.55;;
41687;SDS011;27371;42.686;23.362;2023-04-25T02:30:36;2.90;;;2.47;;
41687;SDS011;27371;42.686;23.362;2023-04-25T02:33:02;4.00;;;2.67;;
41687;SDS011;27371;42.686;23.362;2023-04-25T02:35:28;4.35;;;2.67;;
41687;SDS011;27371;42.686;23.362;2023-04-25T02:37:53;2.85;;;2.45;;
41687;SDS011;27371;42.686;23.362;2023-04-25T02:40:18;3.17;;;2.78;;
41687;SDS011;27371;42.686;23.362;2023-04-25T02:42:44;3.38;;;2.40;;
41687;SDS011;27371;42.686;23.362;2023-04-25T02:45:10;4.05;;;3.15;;
41687;SDS011;27371;42.686;23.362;2023-04-25T02:47:36;3.10;;;2.55;;
41687;SDS011;27371;42.686;23.362;2023-04-25T02:50:02;2.90;;;2.60;;
41687;SDS011;27371;42.686;23.362;2023-04-25T02:52:27;3.13;;;2.55;;
41687;SDS011;27371;42.686;23.362;2023-04-25T02:54:53;3.38;;;3.08;;
41687;SDS011;27371;42.686;23.362;2023-04-25T02:57:18;3.22;;;2.92;;
41687;SDS011;27371;42.686;23.362;2023-04-25T02:59:44;5.22;;;3.03;;
41687;SDS011;27371;42.686;23.362;2023-04-25T03:02:09;4.45;;;3.28;;
41687;SDS011;27371;42.686;23.362;2023-04-25T03:04:35;4.05;;;2.97;;
41687;SDS011;27371;42.686;23.362;2023-04-25T03:07:00;4.97;;;2.95;;
41687;SDS011;27371;42.686;23.362;2023-04-25T03:09:26;3.80;;;3.25;;
41687;SDS011;27371;42.686;23.362;2023-04-25T03:11:51;3.50;;;3.17;;
41687;SDS011;27371;42.686;23.362;2023-04-25T03:14:17;3.95;;;3.17;;
41687;SDS011;27371;42.686;23.362;2023-04-25T03:16:42;3.25;;;2.90;;
41687;SDS011;27371;42.686;23.362;2023-04-25T03:19:08;4.32;;;3.42;;
41687;SDS011;27371;42.686;23.362;2023-04-25T03:21:34;4.28;;;3.47;;
41687;SDS011;27371;42.686;23.362;2023-04-25T03:24:01;4.20;;;3.80;;
41687;SDS011;27371;42.686;23.362;2023-04-25T03:26:28;3.60;;;3.25;;
41687;SDS011;27371;42.686;23.362;2023-04-25T03:28:53;4.57;;;3.95;;
41687;SDS011;27371;42.686;23.362;2023-04-25T03:31:19;4.60;;;4.03;;
41687;SDS011;27371;42.686;23.362;2023-04-25T03:33:44;7.50;;;4.20;;
41687;SDS011;27371;42.686;23.362;2023-04-25T03:36:10;4.00;;;3.60;;
41687;SDS011;27371;42.686;23.362;2023-04-25T03:38:35;4.25;;;3.85;;
41687;SDS011;27371;42.686;23.362;2023-04-25T03:41:01;7.30;;;4.50;;
41687;SDS011;27371;42.686;23.362;2023-04-25T03:43:27;5.22;;;4.70;;
41687;SDS011;27371;42.686;23.362;2023-04-25T03:45:52;6.03;;;4.88;;
41687;SDS011;27371;42.686;23.362;2023-04-25T03:48:18;7.03;;;5.07;;
41687;SDS011;27371;42.686;23.362;2023-04-25T03:50:46;5.82;;;5.22;;
41687;SDS011;27371;42.686;23.362;2023-04-25T03:53:12;5.78;;;5.25;;
41687;SDS011;27371;42.686;23.362;2023-04-25T03:55:37;5.75;;;5.20;;
41687;SDS011;27371;42.686;23.362;2023-04-25T03:58:03;6.47;;;5.88;;
41687;SDS011;27371;42.686;23.362;2023-04-25T04:00:28;6.82;;;6.13;;
41687;SDS011;27371;42.686;23.362;2023-04-25T04:02:53;6.53;;;5.53;;
41687;SDS011;27371;42.686;23.362;2023-04-25T04:05:19;6.63;;;5.93;;
41687;SDS011;27371;42.686;23.362;2023-04-25T04:07:44;7.57;;;6.88;;
41687;SDS011;27371;42.686;23.362;2023-04-25T04:10:10;9.15;;;7.53;;
41687;SDS011;27371;42.686;23.362;2023-04-25T04:12:36;9.75;;;8.07;;
41687;SDS011;27371;42.686;23.362;2023-04-25T04:15:02;8.55;;;7.45;;
41687;SDS011;27371;42.686;23.362;2023-04-25T04:17:29;7.63;;;6.82;;
41687;SDS011;27371;42.686;23.362;2023-04-25T04:19:54;7.80;;;7.00;;
41687;SDS011;27371;42.686;23.362;2023-04-25T04:22:21;8.40;;;6.82;;
41687;SDS011;27371;42.686;23.362;2023-04-25T04:24:46;8.82;;;7.25;;
41687;SDS011;27371;42.686;23.362;2023-04-25T04:27:12;8.63;;;6.78;;
41687;SDS011;27371;42.686;23.362;2023-04-25T04:29:38;7.53;;;6.72;;
41687;SDS011;27371;42.686;23.362;2023-04-25T04:32:03;7.10;;;6.40;;
41687;SDS011;27371;42.686;23.362;2023-04-25T04:34:29;8.32;;;6.07;;
41687;SDS011;27371;42.686;23.362;2023-04-25T04:36:56;8.40;;;7.50;;
41687;SDS011;27371;42.686;23.362;2023-04-25T04:39:21;9.23;;;7.45;;
41687;SDS011;27371;42.686;23.362;2023-04-25T04:41:47;9.00;;;7.28;;
41687;SDS011;27371;42.686;23.362;2023-04-25T04:44:12;9.68;;;7.22;;
41687;SDS011;27371;42.686;23.362;2023-04-25T04:46:39;9.38;;;7.78;;
41687;SDS011;27371;42.686;23.362;2023-04-25T04:49:08;10.30;;;8.13;;
41687;SDS011;27371;42.686;23.362;2023-04-25T04:51:34;8.60;;;7.78;;
41687;SDS011;27371;42.686;23.362;2023-04-25T04:53:59;8.77;;;7.88;;
41687;SDS011;27371;42.686;23.362;2023-04-25T04:56:27;9.93;;;8.68;;
41687;SDS011;27371;42.686;23.362;2023-04-25T04:58:59;8.85;;;7.85;;
41687;SDS011;27371;42.686;23.362;2023-04-25T05:01:25;9.43;;;7.90;;
41687;SDS011;27371;42.686;23.362;2023-04-25T05:03:51;10.68;;;8.52;;
41687;SDS011;27371;42.686;23.362;2023-04-25T05:06:18;9.30;;;7.47;;
41687;SDS011;27371;42.686;23.362;2023-04-25T05:08:44;7.60;;;6.72;;
41687;SDS011;27371;42.686;23.362;2023-04-25T05:11:09;9.07;;;7.05;;
41687;SDS011;27371;42.686;23.362;2023-04-25T05:13:35;9.70;;;7.55;;
41687;SDS011;27371;42.686;23.362;2023-04-25T05:16:00;11.70;;;7.85;;
41687;SDS011;27371;42.686;23.362;2023-04-25T05:18:26;10.75;;;7.78;;
41687;SDS011;27371;42.686;23.362;2023-04-25T05:20:51;11.52;;;8.50;;
41687;SDS011;27371;42.686;23.362;2023-04-25T05:23:17;13.43;;;9.20;;
41687;SDS011;27371;42.686;23.362;2023-04-25T05:25:42;11.95;;;9.93;;
41687;SDS011;27371;42.686;23.362;2023-04-25T05:28:08;12.77;;;10.13;;
41687;SDS011;27371;42.686;23.362;2023-04-25T05:30:34;10.13;;;9.13;;
41687;SDS011;27371;42.686;23.362;2023-04-25T05:32:59;11.40;;;9.65;;
41687;SDS011;27371;42.686;23.362;2023-04-25T05:35:26;10.85;;;7.88;;
41687;SDS011;27371;42.686;23.362;2023-04-25T05:37:52;10.30;;;5.63;;
41687;SDS011;27371;42.686;23.362;2023-04-25T05:40:17;7.10;;;4.90;;
41687;SDS011;27371;42.686;23.362;2023-04-25T05:42:42;6.68;;;5.28;;
41687;SDS011;27371;42.686;23.362;2023-04-25T05:45:08;6.60;;;5.07;;
41687;SDS011;27371;42.686;23.362;2023-04-25T05:47:34;5.95;;;4.63;;
41687;SDS011;27371;42.686;23.362;2023-04-25T05:50:00;7.90;;;4.72;;
41687;SDS011;27371;42.686;23.362;2023-04-25T05:52:25;8.25;;;4.45;;
41687;SDS011;27371;42.686;23.362;2023-04-25T05:54:51;5.90;;;4.30;;
41687;SDS011;27371;42.686;23.362;2023-04-25T05:57:20;6.50;;;4.32;;
41687;SDS011;27371;42.686;23.362;2023-04-25T05:59:49;5.22;;;4.30;;
41687;SDS011;27371;42.686;23.362;2023-04-25T06:02:17;6.95;;;3.13;;
41687;SDS011;27371;42.686;23.362;2023-04-25T06:04:44;3.80;;;3.10;;
41687;SDS011;27371;42.686;23.362;2023-04-25T06:07:09;5.78;;;4.10;;
41687;SDS011;27371;42.686;23.362;2023-04-25T06:09:35;6.88;;;4.50;;
41687;SDS011;27371;42.686;23.362;2023-04-25T06:12:00;8.57;;;4.85;;
41687;SDS011;27371;42.686;23.362;2023-04-25T06:14:26;6.10;;;4.90;;
41687;SDS011;27371;42.686;23.362;2023-04-25T06:16:52;6.70;;;5.53;;
41687;SDS011;27371;42.686;23.362;2023-04-25T06:19:17;6.95;;;5.65;;
41687;SDS011;27371;42.686;23.362;2023-04-25T06:21:43;8.52;;;5.82;;
41687;SDS011;27371;42.686;23.362;2023-04-25T06:24:09;8.00;;;5.30;;
41687;SDS011;27371;42.686;23.362;2023-04-25T06:26:35;7.60;;;5.88;;
41687;SDS011;27371;42.686;23.362;2023-04-25T06:29:00;7.03;;;4.40;;
41687;SDS011;27371;42.686;23.362;2023-04-25T06:31:26;10.68;;;3.95;;
41687;SDS011;27371;42.686;23.362;2023-04-25T06:33:51;7.50;;;4.80;;
41687;SDS011;27371;42.686;23.362;2023-04-25T06:36:19;7.88;;;4.82;;
41687;SDS011;27371;42.686;23.362;2023-04-25T06:38:53;8.43;;;4.65;;
41687;SDS011;27371;42.686;23.362;2023-04-25T06:41:19;5.65;;;3.40;;
41687;SDS011;27371;42.686;23.362;2023-04-25T06:43:44;4.57;;;3.40;;
41687;SDS011;27371;42.686;23.362;2023-04-25T06:46:10;4.90;;;3.20;;
41687;SDS011;27371;42.686;23.362;2023-04-25T06:48:36;3.97;;;3.40;;
41687;SDS011;27371;42.686;23.362;2023-04-25T06:51:01;5.88;;;3.70;;
41687;SDS011;27371;42.686;23.362;2023-04-25T06:53:27;4.75;;;3.50;;
41687;SDS011;27371;42.686;23.362;2023-04-25T06:55:52;5.30;;;3.67;;
41687;SDS011;27371;42.686;23.362;2023-04-25T06:58:18;4.90;;;3.70;;
41687;SDS011;27371;42.686;23.362;2023-04-25T07:00:44;3.50;;;2.92;;
41687;SDS011;27371;42.686;23.362;2023-04-25T07:03:09;5.45;;;4.07;;
41687;SDS011;27371;42.686;23.362;2023-04-25T07:05:35;6.68;;;4.35;;
41687;SDS011;27371;42.686;23.362;2023-04-25T07:08:00;5.22;;;4.20;;
41687;SDS011;27371;42.686;23.362;2023-04-25T07:10:26;5.13;;;3.85;;
41687;SDS011;27371;42.686;23.362;2023-04-25T07:12:51;5.30;;;4.03;;
41687;SDS011;27371;42.686;23.362;2023-04-25T07:15:17;10.77;;;4.40;;
41687;SDS011;27371;42.686;23.362;2023-04-25T07:17:42;6.38;;;4.40;;
41687;SDS011;27371;42.686;23.362;2023-04-25T07:20:08;7.00;;;4.55;;
41687;SDS011;27371;42.686;23.362;2023-04-25T07:22:34;5.30;;;4.50;;
41687;SDS011;27371;42.686;23.362;2023-04-25T07:25:00;7.82;;;4.80;;
41687;SDS011;27371;42.686;23.362;2023-04-25T07:27:25;7.93;;;4.55;;
41687;SDS011;27371;42.686;23.362;2023-04-25T07:29:51;5.80;;;4.25;;
41687;SDS011;27371;42.686;23.362;2023-04-25T07:32:16;7.07;;;4.50;;
41687;SDS011;27371;42.686;23.362;2023-04-25T07:34:41;5.32;;;4.35;;
41687;SDS011;27371;42.686;23.362;2023-04-25T07:37:07;7.60;;;4.60;;
41687;SDS011;27371;42.686;23.362;2023-04-25T07:39:32;7.30;;;4.63;;
41687;SDS011;27371;42.686;23.362;2023-04-25T07:41:58;6.00;;;4.88;;
41687;SDS011;27371;42.686;23.362;2023-04-25T07:44:24;9.10;;;5.50;;
41687;SDS011;27371;42.686;23.362;2023-04-25T07:46:50;6.43;;;4.90;;
41687;SDS011;27371;42.686;23.362;2023-04-25T07:49:15;9.50;;;5.05;;
41687;SDS011;27371;42.686;23.362;2023-04-25T07:51:41;5.45;;;4.82;;
41687;SDS011;27371;42.686;23.362;2023-04-25T07:54:08;10.02;;;5.10;;
41687;SDS011;27371;42.686;23.362;2023-04-25T07:56:43;6.43;;;4.88;;
41687;SDS011;27371;42.686;23.362;2023-04-25T07:59:08;7.78;;;4.88;;
41687;SDS011;27371;42.686;23.362;2023-04-25T08:01:34;5.38;;;4.45;;
41687;SDS011;27371;42.686;23.362;2023-04-25T08:04:00;5.22;;;4.07;;
41687;SDS011;27371;42.686;23.362;2023-04-25T08:06:25;6.35;;;4.10;;
41687;SDS011;27371;42.686;23.362;2023-04-25T08:08:51;7.43;;;3.60;;
41687;SDS011;27371;42.686;23.362;2023-04-25T08:11:16;5.97;;;3.50;;
41687;SDS011;27371;42.686;23.362;2023-04-25T08:13:42;7.63;;;3.13;;
41687;SDS011;27371;42.686;23.362;2023-04-25T08:16:07;6.22;;;4.25;;
41687;SDS011;27371;42.686;23.362;2023-04-25T08:18:33;6.55;;;3.40;;
41687;SDS011;27371;42.686;23.362;2023-04-25T08:20:58;9.85;;;4.30;;
41687;SDS011;27371;42.686;23.362;2023-04-25T08:23:24;8.82;;;3.50;;
41687;SDS011;27371;42.686;23.362;2023-04-25T08:25:50;6.35;;;3.13;;
41687;SDS011;27371;42.686;23.362;2023-04-25T08:28:15;5.32;;;3.58;;
41687;SDS011;27371;42.686;23.362;2023-04-25T08:30:41;5.10;;;3.58;;
41687;SDS011;27371;42.686;23.362;2023-04-25T08:33:07;7.10;;;4.00;;
41687;SDS011;27371;42.686;23.362;2023-04-25T08:35:32;6.13;;;3.70;;
41687;SDS011;27371;42.686;23.362;2023-04-25T08:37:58;8.90;;;4.25;;
41687;SDS011;27371;42.686;23.362;2023-04-25T08:40:24;10.27;;;4.53;;
41687;SDS011;27371;42.686;23.362;2023-04-25T08:42:55;5.38;;;3.90;;
41687;SDS011;27371;42.686;23.362;2023-04-25T08:45:26;5.68;;;3.85;;
41687;SDS011;27371;42.686;23.362;2023-04-25T08:47:53;7.03;;;4.00;;
41687;SDS011;27371;42.686;23.362;2023-04-25T08:50:19;6.22;;;5.47;;
41687;SDS011;27371;42.686;23.362;2023-04-25T08:52:47;8.45;;;6.85;;
41687;SDS011;27371;42.686;23.362;2023-04-25T08:55:17;8.95;;;5.53;;
41687;SDS011;27371;42.686;23.362;2023-04-25T08:57:44;10.77;;;6.20;;
41687;SDS011;27371;42.686;23.362;2023-04-25T09:00:10;9.55;;;6.50;;
41687;SDS011;27371;42.686;23.362;2023-04-25T09:02:37;8.68;;;6.65;;
41687;SDS011;27371;42.686;23.362;2023-04-25T09:05:04;8.52;;;7.10;;
41687;SDS011;27371;42.686;23.362;2023-04-25T09:07:31;8.05;;;5.90;;
41687;SDS011;27371;42.686;23.362;2023-04-25T09:09:58;8.15;;;5.95;;
41687;SDS011;27371;42.686;23.362;2023-04-25T09:12:26;6.43;;;4.32;;
41687;SDS011;27371;42.686;23.362;2023-04-25T09:15:06;9.25;;;5.93;;
41687;SDS011;27371;42.686;23.362;2023-04-25T09:17:33;5.53;;;3.83;;
41687;SDS011;27371;42.686;23.362;2023-04-25T09:20:09;5.25;;;4.18;;
41687;SDS011;27371;42.686;23.362;2023-04-25T09:22:37;8.25;;;5.75;;
41687;SDS011;27371;42.686;23.362;2023-04-25T09:25:12;5.78;;;4.82;;
41687;SDS011;27371;42.686;23.362;2023-04-25T09:27:50;6.80;;;2.95;;
41687;SDS011;27371;42.686;23.362;2023-04-25T09:30:17;5.88;;;3.13;;
41687;SDS011;27371;42.686;23.362;2023-04-25T09:32:43;4.55;;;3.20;;
41687;SDS011;27371;42.686;23.362;2023-04-25T09:35:09;5.22;;;2.95;;
41687;SDS011;27371;42.686;23.362;2023-04-25T09:37:36;6.00;;;3.85;;
41687;SDS011;27371;42.686;23.362;2023-04-25T09:40:04;9.40;;;4.05;;
41687;SDS011;27371;42.686;23.362;2023-04-25T09:42:31;5.72;;;3.60;;
41687;SDS011;27371;42.686;23.362;2023-04-25T09:45:01;6.35;;;3.92;;
41687;SDS011;27371;42.686;23.362;2023-04-25T09:47:27;7.32;;;3.63;;
41687;SDS011;27371;42.686;23.362;2023-04-25T09:49:53;4.55;;;3.08;;
41687;SDS011;27371;42.686;23.362;2023-04-25T09:52:23;4.35;;;2.97;;
41687;SDS011;27371;42.686;23.362;2023-04-25T09:54:50;5.47;;;3.25;;
41687;SDS011;27371;42.686;23.362;2023-04-25T09:59:55;6.30;;;2.03;;
41687;SDS011;27371;42.686;23.362;2023-04-25T10:02:22;3.75;;;2.20;;
41687;SDS011;27371;42.686;23.362;2023-04-25T10:04:50;7.07;;;3.28;;
41687;SDS011;27371;42.686;23.362;2023-04-25T10:07:19;5.20;;;3.38;;
41687;SDS011;27371;42.686;23.362;2023-04-25T10:09:48;5.15;;;2.15;;
41687;SDS011;27371;42.686;23.362;2023-04-25T10:12:17;5.13;;;2.80;;
41687;SDS011;27371;42.686;23.362;2023-04-25T10:14:43;4.78;;;2.47;;
41687;SDS011;27371;42.686;23.362;2023-04-25T10:17:10;5.85;;;2.60;;
41687;SDS011;27371;42.686;23.362;2023-04-25T10:19:36;4.05;;;1.65;;
41687;SDS011;27371;42.686;23.362;2023-04-25T10:22:11;4.75;;;2.10;;
41687;SDS011;27371;42.686;23.362;2023-04-25T10:24:41;7.70;;;2.78;;
41687;SDS011;27371;42.686;23.362;2023-04-25T10:27:08;6.68;;;3.03;;
41687;SDS011;27371;42.686;23.362;2023-04-25T10:29:34;8.05;;;3.10;;
41687;SDS011;27371;42.686;23.362;2023-04-25T10:32:00;3.00;;;1.58;;
41687;SDS011;27371;42.686;23.362;2023-04-25T10:34:40;7.47;;;2.67;;
41687;SDS011;27371;42.686;23.362;2023-04-25T10:37:10;5.68;;;2.50;;
41687;SDS011;27371;42.686;23.362;2023-04-25T10:39:37;4.75;;;2.15;;
41687;SDS011;27371;42.686;23.362;2023-04-25T10:42:07;4.65;;;2.95;;
41687;SDS011;27371;42.686;23.362;2023-04-25T10:44:33;4.28;;;2.10;;
41687;SDS011;27371;42.686;23.362;2023-04-25T10:47:00;2.50;;;0.90;;
41687;SDS011;27371;42.686;23.362;2023-04-25T10:52:12;5.45;;;1.42;;
41687;SDS011;27371;42.686;23.362;2023-04-25T10:54:53;1.42;;;0.90;;
41687;SDS011;27371;42.686;23.362;2023-04-25T10:57:38;2.80;;;0.93;;
41687;SDS011;27371;42.686;23.362;2023-04-25T11:02:37;3.25;;;1.17;;
41687;SDS011;27371;42.686;23.362;2023-04-25T11:05:08;5.55;;;1.10;;
41687;SDS011;27371;42.686;23.362;2023-04-25T11:07:40;2.15;;;1.08;;
41687;SDS011;27371;42.686;23.362;2023-04-25T11:10:14;5.03;;;1.30;;
41687;SDS011;27371;42.686;23.362;2023-04-25T11:12:39;4.95;;;1.20;;
41687;SDS011;27371;42.686;23.362;2023-04-25T11:15:06;2.90;;;1.30;;
41687;SDS011;27371;42.686;23.362;2023-04-25T11:17:32;4.50;;;1.13;;
41687;SDS011;27371;42.686;23.362;2023-04-25T11:19:59;3.25;;;0.90;;
41687;SDS011;27371;42.686;23.362;2023-04-25T11:22:26;3.85;;;1.00;;
41687;SDS011;27371;42.686;23.362;2023-04-25T11:24:52;1.48;;;0.68;;
41687;SDS011;27371;42.686;23.362;2023-04-25T11:27:18;0.85;;;0.68;;
41687;SDS011;27371;42.686;23.362;2023-04-25T11:29:44;2.47;;;0.50;;
41687;SDS011;27371;42.686;23.362;2023-04-25T11:32:09;1.08;;;0.50;;
41687;SDS011;27371;42.686;23.362;2023-04-25T11:34:35;2.03;;;0.70;;
41687;SDS011;27371;42.686;23.362;2023-04-25T11:37:01;3.05;;;0.80;;
41687;SDS011;27371;42.686;23.362;2023-04-25T11:39:28;2.15;;;0.75;;
41687;SDS011;27371;42.686;23.362;2023-04-25T11:41:54;4.47;;;1.30;;
41687;SDS011;27371;42.686;23.362;2023-04-25T11:44:20;3.60;;;1.30;;
41687;SDS011;27371;42.686;23.362;2023-04-25T11:46:46;4.70;;;1.20;;
41687;SDS011;27371;42.686;23.362;2023-04-25T11:49:12;1.35;;;0.65;;
41687;SDS011;27371;42.686;23.362;2023-04-25T11:51:42;5.82;;;0.90;;
41687;SDS011;27371;42.686;23.362;2023-04-25T11:54:09;1.92;;;0.80;;
41687;SDS011;27371;42.686;23.362;2023-04-25T11:56:35;2.08;;;0.85;;
41687;SDS011;27371;42.686;23.362;2023-04-25T11:59:01;0.93;;;0.40;;
41687;SDS011;27371;42.686;23.362;2023-04-25T12:01:29;1.10;;;0.43;;
41687;SDS011;27371;42.686;23.362;2023-04-25T12:04:09;2.78;;;0.60;;
41687;SDS011;27371;42.686;23.362;2023-04-25T12:06:46;2.42;;;0.90;;
41687;SDS011;27371;42.686;23.362;2023-04-25T12:09:13;3.95;;;0.68;;
41687;SDS011;27371;42.686;23.362;2023-04-25T12:11:53;1.45;;;0.60;;
41687;SDS011;27371;42.686;23.362;2023-04-25T12:14:23;1.67;;;0.50;;
41687;SDS011;27371;42.686;23.362;2023-04-25T12:16:57;1.90;;;0.80;;
41687;SDS011;27371;42.686;23.362;2023-04-25T12:19:24;0.80;;;0.35;;
41687;SDS011;27371;42.686;23.362;2023-04-25T12:21:51;0.95;;;0.32;;
41687;SDS011;27371;42.686;23.362;2023-04-25T12:24:17;0.52;;;0.30;;
41687;SDS011;27371;42.686;23.362;2023-04-25T12:26:49;2.45;;;0.50;;
41687;SDS011;27371;42.686;23.362;2023-04-25T12:29:18;1.17;;;0.30;;
41687;SDS011;27371;42.686;23.362;2023-04-25T12:31:49;1.00;;;0.35;;
41687;SDS011;27371;42.686;23.362;2023-04-25T12:34:15;4.82;;;1.00;;
41687;SDS011;27371;42.686;23.362;2023-04-25T12:36:41;1.45;;;0.80;;
41687;SDS011;27371;42.686;23.362;2023-04-25T12:39:06;3.33;;;1.15;;
41687;SDS011;27371;42.686;23.362;2023-04-25T12:41:33;12.07;;;1.80;;
41687;SDS011;27371;42.686;23.362;2023-04-25T12:43:58;7.70;;;1.20;;
41687;SDS011;27371;42.686;23.362;2023-04-25T12:46:24;5.25;;;1.40;;
41687;SDS011;27371;42.686;23.362;2023-04-25T12:48:49;6.60;;;1.25;;
41687;SDS011;27371;42.686;23.362;2023-04-25T12:51:15;7.10;;;1.40;;
41687;SDS011;27371;42.686;23.362;2023-04-25T12:53:41;3.80;;;1.00;;
41687;SDS011;27371;42.686;23.362;2023-04-25T12:56:07;4.05;;;0.80;;
41687;SDS011;27371;42.686;23.362;2023-04-25T12:58:33;4.72;;;1.23;;
41687;SDS011;27371;42.686;23.362;2023-04-25T13:00:58;6.05;;;1.60;;
41687;SDS011;27371;42.686;23.362;2023-04-25T13:03:24;2.83;;;1.30;;
41687;SDS011;27371;42.686;23.362;2023-04-25T13:05:50;3.55;;;1.38;;
41687;SDS011;27371;42.686;23.362;2023-04-25T13:08:17;2.83;;;1.40;;
41687;SDS011;27371;42.686;23.362;2023-04-25T13:10:46;2.15;;;1.40;;
41687;SDS011;27371;42.686;23.362;2023-04-25T13:13:12;3.90;;;1.35;;
41687;SDS011;27371;42.686;23.362;2023-04-25T13:15:38;6.22;;;3.83;;
41687;SDS011;27371;42.686;23.362;2023-04-25T13:18:04;6.45;;;3.05;;
41687;SDS011;27371;42.686;23.362;2023-04-25T13:20:32;9.55;;;1.83;;
41687;SDS011;27371;42.686;23.362;2023-04-25T13:22:58;4.28;;;1.40;;
41687;SDS011;27371;42.686;23.362;2023-04-25T13:25:23;6.63;;;1.55;;
41687;SDS011;27371;42.686;23.362;2023-04-25T13:27:49;5.13;;;1.10;;
41687;SDS011;27371;42.686;23.362;2023-04-25T13:30:15;5.38;;;1.95;;
41687;SDS011;27371;42.686;23.362;2023-04-25T13:32:41;4.30;;;1.63;;
41687;SDS011;27371;42.686;23.362;2023-04-25T13:35:07;6.22;;;1.55;;
41687;SDS011;27371;42.686;23.362;2023-04-25T13:37:34;6.55;;;1.75;;
41687;SDS011;27371;42.686;23.362;2023-04-25T13:40:00;4.38;;;1.25;;
41687;SDS011;27371;42.686;23.362;2023-04-25T13:42:29;4.22;;;1.50;;
41687;SDS011;27371;42.686;23.362;2023-04-25T13:44:55;5.63;;;1.80;;
41687;SDS011;27371;42.686;23.362;2023-04-25T13:47:21;5.68;;;1.75;;
41687;SDS011;27371;42.686;23.362;2023-04-25T13:49:48;2.83;;;1.25;;
41687;SDS011;27371;42.686;23.362;2023-04-25T13:52:14;4.95;;;1.65;;
41687;SDS011;27371;42.686;23.362;2023-04-25T13:54:40;4.65;;;1.40;;
41687;SDS011;27371;42.686;23.362;2023-04-25T13:57:05;6.00;;;1.73;;
41687;SDS011;27371;42.686;23.362;2023-04-25T13:59:31;3.30;;;1.50;;
41687;SDS011;27371;42.686;23.362;2023-04-25T14:01:57;4.57;;;1.95;;
41687;SDS011;27371;42.686;23.362;2023-04-25T14:04:23;5.43;;;1.90;;
41687;SDS011;27371;42.686;23.362;2023-04-25T14:06:48;5.68;;;1.60;;
41687;SDS011;27371;42.686;23.362;2023-04-25T14:09:15;6.60;;;1.75;;
41687;SDS011;27371;42.686;23.362;2023-04-25T14:11:40;4.03;;;1.40;;
41687;SDS011;27371;42.686;23.362;2023-04-25T14:14:06;4.22;;;1.20;;
41687;SDS011;27371;42.686;23.362;2023-04-25T14:16:31;4.03;;;1.73;;
41687;SDS011;27371;42.686;23.362;2023-04-25T14:18:57;3.03;;;1.42;;
41687;SDS011;27371;42.686;23.362;2023-04-25T14:21:23;5.80;;;1.38;;
41687;SDS011;27371;42.686;23.362;2023-04-25T14:23:50;3.28;;;1.23;;
41687;SDS011;27371;42.686;23.362;2023-04-25T14:26:15;3.70;;;1.42;;
41687;SDS011;27371;42.686;23.362;2023-04-25T14:28:41;3.22;;;1.20;;
41687;SDS011;27371;42.686;23.362;2023-04-25T14:31:07;1.17;;;0.70;;
41687;SDS011;27371;42.686;23.362;2023-04-25T14:33:32;2.15;;;0.70;;
41687;SDS011;27371;42.686;23.362;2023-04-25T14:35:58;1.98;;;0.80;;
41687;SDS011;27371;42.686;23.362;2023-04-25T14:38:23;1.08;;;0.75;;